Time;durP1;ratioP1;P1;durP2;ratioP2;P2;SDS_P1;SDS_P2;PMS_P1;PMS_P2;Temp;Humidity;BMP_temperature;BMP_pressure;BME280_temperature;BME280_humidity;BME280_pressure;Samples;Min_cycle;Max_cycle;Signal;HPM_P1;HPM_P2
2023/04/06 00:01:08;;;;;;;;;22.25;21.00;;;;;14.25;33.77;101357.66;5070560;27;45606;-68
2023/04/06 00:03:34;;;;;;;;;27.25;20.25;;;;;14.17;34.35;101352.44;5092394;27;45645;-67
2023/04/06 00:06:00;;;;;;;;;26.25;21.25;;;;;14.17;34.64;101354.19;5088798;27;45659;-67
2023/04/06 00:08:27;;;;;;;;;26.75;20.50;;;;;14.17;34.88;101354.19;5072027;27;45458;-68
2023/04/06 00:10:53;;;;;;;;;22.00;19.00;;;;;14.14;34.43;101341.00;5055727;28;45763;-70
2023/04/06 00:13:19;;;;;;;;;27.75;20.25;;;;;14.15;34.79;101348.03;5075817;27;45444;-71
2023/04/06 00:15:45;;;;;;;;;19.00;17.25;;;;;14.20;34.78;101343.63;5076620;27;45569;-71
2023/04/06 00:18:11;;;;;;;;;22.75;19.50;;;;;14.09;35.08;101317.31;5057920;28;46709;-68
2023/04/06 00:20:36;;;;;;;;;29.50;23.75;;;;;14.16;34.42;101331.34;5075756;27;45500;-68
2023/04/06 00:23:02;;;;;;;;;19.50;19.50;;;;;14.19;34.77;101344.53;5075850;27;45362;-68
2023/04/06 00:25:27;;;;;;;;;23.00;19.75;;;;;14.27;34.66;101344.50;5075768;27;45641;-67
2023/04/06 00:27:53;;;;;;;;;20.75;18.75;;;;;14.26;35.03;101335.72;5075003;27;45794;-68
2023/04/06 00:30:19;;;;;;;;;21.50;20.50;;;;;14.32;34.80;101346.22;5079128;27;45474;-68
2023/04/06 00:32:44;;;;;;;;;24.50;19.50;;;;;14.31;35.45;101338.34;5096145;27;45808;-67
2023/04/06 00:35:10;;;;;;;;;22.50;21.00;;;;;14.31;35.64;101328.66;5081931;27;45840;-68
2023/04/06 00:37:36;;;;;;;;;27.25;18.50;;;;;14.39;35.29;101339.19;5075925;27;45625;-69
2023/04/06 00:40:02;;;;;;;;;21.25;19.75;;;;;14.41;35.82;101337.41;5075169;27;45991;-70
2023/04/06 00:42:28;;;;;;;;;23.75;17.00;;;;;14.30;36.16;101329.53;5077164;27;45542;-70
2023/04/06 00:44:55;;;;;;;;;25.25;21.75;;;;;14.33;36.36;101324.28;5075640;27;45357;-69
2023/04/06 00:47:21;;;;;;;;;28.75;20.00;;;;;14.32;36.60;101327.78;5057483;27;45786;-69
2023/04/06 00:49:47;;;;;;;;;27.75;22.50;;;;;14.33;36.07;101329.53;5056677;27;45572;-67
2023/04/06 00:52:13;;;;;;;;;21.25;20.00;;;;;14.24;37.43;101323.41;5077157;27;45814;-67
2023/04/06 00:54:38;;;;;;;;;30.50;22.00;;;;;14.26;36.87;101316.38;5075963;27;45433;-67
2023/04/06 00:57:04;;;;;;;;;24.25;20.75;;;;;14.17;36.21;101302.38;5075299;27;46279;-68
2023/04/06 00:59:32;;;;;;;;;22.00;19.25;;;;;14.26;36.86;101311.09;5077333;27;45558;-69
2023/04/06 01:01:58;;;;;;;;;22.25;18.75;;;;;14.13;36.93;101297.13;5073143;27;45541;-67
2023/04/06 01:04:24;;;;;;;;;23.50;19.00;;;;;14.23;37.39;101314.63;5096080;27;45275;-68
2023/04/06 01:06:50;;;;;;;;;24.50;21.00;;;;;14.25;37.71;101314.63;5095899;27;45452;-68
2023/04/06 01:09:17;;;;;;;;;24.25;19.75;;;;;14.19;37.64;101311.16;5072584;27;45415;-68
2023/04/06 01:11:43;;;;;;;;;23.50;21.00;;;;;14.23;37.30;101305.84;5062368;27;45466;-69
2023/04/06 01:14:09;;;;;;;;;23.50;20.25;;;;;14.05;37.49;101276.09;5080112;27;45842;-67
2023/04/06 01:16:34;;;;;;;;;21.50;20.25;;;;;14.16;37.75;101299.72;5086224;27;45855;-67
2023/04/06 01:19:00;;;;;;;;;23.50;19.00;;;;;14.15;37.81;101298.00;5078964;27;45913;-67
2023/04/06 01:21:26;;;;;;;;;26.75;20.25;;;;;14.15;37.58;101293.59;5080279;27;45883;-68
2023/04/06 01:23:52;;;;;;;;;24.00;19.25;;;;;14.13;37.68;101289.22;5074991;27;45455;-67
2023/04/06 01:26:17;;;;;;;;;25.00;22.00;;;;;14.19;37.94;101295.34;5085623;27;45741;-69
2023/04/06 01:28:44;;;;;;;;;23.25;19.00;;;;;14.22;37.46;101299.72;5089471;27;45648;-66
2023/04/06 01:31:11;;;;;;;;;22.75;20.25;;;;;14.24;37.82;101290.06;5071568;27;45806;-69
2023/04/06 01:33:37;;;;;;;;;23.50;22.50;;;;;14.18;37.95;101277.75;5075265;27;45528;-69
2023/04/06 01:36:03;;;;;;;;;24.00;20.50;;;;;14.26;38.17;101285.66;5082559;27;46157;-67
2023/04/06 01:38:29;;;;;;;;;25.75;21.75;;;;;14.30;37.55;101292.66;5081314;27;45379;-67
2023/04/06 01:40:55;;;;;;;;;24.50;18.00;;;;;14.31;38.11;101283.00;5089973;27;45381;-67
2023/04/06 01:43:21;;;;;;;;;22.75;18.75;;;;;14.29;37.67;101276.88;5088212;27;45718;-68
2023/04/06 01:45:47;;;;;;;;;24.00;18.00;;;;;14.31;37.75;101283.88;5091136;27;45646;-68
2023/04/06 01:48:12;;;;;;;;;25.25;19.75;;;;;14.27;38.24;101268.97;5091079;27;45694;-68
2023/04/06 01:50:38;;;;;;;;;21.50;20.00;;;;;14.16;38.69;101255.81;5077804;27;45520;-68
2023/04/06 01:53:04;;;;;;;;;20.25;14.00;;;;;14.19;39.45;101276.03;5091048;27;45416;-67
2023/04/06 01:55:29;;;;;;;;;22.75;19.75;;;;;14.09;38.76;101256.72;5086555;27;45380;-68
2023/04/06 01:57:55;;;;;;;;;25.75;17.75;;;;;14.19;38.46;101268.13;5081801;27;45559;-69
2023/04/06 02:00:21;;;;;;;;;22.00;20.75;;;;;14.21;39.12;101261.97;5095752;27;45654;-69
2023/04/06 02:02:47;;;;;;;;;20.25;18.25;;;;;14.14;38.98;101252.34;5080993;27;45348;-67
2023/04/06 02:05:12;;;;;;;;;22.50;19.50;;;;;14.23;39.14;101276.88;5094402;27;45416;-68
2023/04/06 02:07:38;;;;;;;;;27.75;23.25;;;;;14.19;38.98;101273.41;5075358;27;45505;-69
2023/04/06 02:10:11;;;;;;;;;29.50;22.50;;;;;14.18;39.36;101279.53;5076459;27;45576;-67
2023/04/06 02:12:36;;;;;;;;;34.00;23.75;;;;;14.20;39.30;101280.41;5098383;27;45438;-69
2023/04/06 02:15:03;;;;;;;;;23.50;20.75;;;;;14.18;39.51;101276.91;5077349;27;46318;-68
2023/04/06 02:17:28;;;;;;;;;25.00;21.00;;;;;14.13;39.75;101266.38;5096077;27;45598;-70
2023/04/06 02:19:54;;;;;;;;;22.50;18.50;;;;;14.11;39.18;101265.50;5094127;27;45419;-69
2023/04/06 02:22:20;;;;;;;;;21.75;17.75;;;;;14.15;38.88;101266.38;5091146;27;45527;-66
2023/04/06 02:24:46;;;;;;;;;23.00;21.00;;;;;14.19;39.53;101270.75;5058466;28;47529;-68
2023/04/06 02:27:42;;;;;;;;;23.75;20.50;;;;;14.10;39.38;101253.22;5079538;27;45490;-69
2023/04/06 02:30:08;;;;;;;;;30.25;23.00;;;;;14.18;39.77;101263.72;5075737;27;45591;-69
2023/04/06 02:32:34;;;;;;;;;29.00;22.25;;;;;14.16;39.88;101247.03;5094837;27;45504;-68
2023/04/06 02:35:00;;;;;;;;;28.50;22.50;;;;;14.09;39.85;101238.28;5094623;27;45360;-67
2023/04/06 02:37:25;;;;;;;;;26.00;19.25;;;;;14.16;39.96;101253.19;5095260;27;45360;-67
2023/04/06 02:39:51;;;;;;;;;26.50;20.75;;;;;14.17;40.05;101243.56;5098201;27;45551;-70
2023/04/06 02:42:17;;;;;;;;;24.50;19.75;;;;;14.17;39.70;101246.19;5078426;27;45399;-68
2023/04/06 02:44:44;;;;;;;;;25.50;18.75;;;;;14.17;39.63;101233.00;5094914;27;46276;-67
2023/04/06 02:47:10;;;;;;;;;23.00;21.00;;;;;14.17;39.92;101235.66;5076743;27;45472;-70
2023/04/06 02:49:40;;;;;;;;;23.75;21.75;;;;;14.14;39.94;101235.63;5094889;27;45540;-69
2023/04/06 02:52:05;;;;;;;;;22.75;20.25;;;;;14.16;39.65;101225.97;5076792;27;45526;-68
2023/04/06 02:54:31;;;;;;;;;26.00;17.50;;;;;14.09;39.36;101217.22;5094316;27;45475;-68
2023/04/06 02:56:56;;;;;;;;;26.00;23.50;;;;;14.13;40.01;101215.47;5086179;27;45477;-67
2023/04/06 02:59:22;;;;;;;;;30.00;22.00;;;;;14.07;39.61;101211.09;5070787;27;45425;-69
2023/04/06 03:01:47;;;;;;;;;24.75;20.75;;;;;14.13;39.67;101237.41;5076802;27;45450;-67
2023/04/06 03:04:13;;;;;;;;;27.75;22.00;;;;;14.17;39.87;101262.00;5076168;27;46986;-66
2023/04/06 03:06:39;;;;;;;;;29.00;25.00;;;;;14.13;40.21;101260.25;5094421;27;45476;-68
2023/04/06 03:09:06;;;;;;;;;27.50;20.00;;;;;14.09;40.40;101245.31;5094858;27;45533;-67
2023/04/06 03:11:32;;;;;;;;;24.25;20.50;;;;;14.07;40.12;101239.19;5097996;27;45358;-67
2023/04/06 03:13:59;;;;;;;;;29.75;22.50;;;;;14.09;40.02;101253.22;5094203;27;45816;-68
2023/04/06 03:16:24;;;;;;;;;32.00;22.00;;;;;13.94;40.42;101256.81;5094017;27;46061;-68
2023/04/06 03:18:50;;;;;;;;;21.50;18.50;;;;;13.95;40.38;101250.63;5096184;27;45754;-66
2023/04/06 03:21:16;;;;;;;;;27.25;20.25;;;;;13.95;40.58;101243.66;5099020;27;45329;-67
2023/04/06 03:23:42;;;;;;;;;33.00;23.25;;;;;13.80;40.41;101217.34;5096823;27;46426;-68
2023/04/06 03:26:08;;;;;;;;;35.25;25.75;;;;;13.77;41.06;101243.69;5094838;27;45463;-66
2023/04/06 03:28:33;;;;;;;;;26.75;20.00;;;;;13.64;40.76;101208.63;5094348;27;45455;-67
2023/04/06 03:30:59;;;;;;;;;24.50;20.25;;;;;13.78;40.46;101222.59;5094803;27;46433;-71
2023/04/06 03:33:26;;;;;;;;;25.75;19.75;;;;;13.86;40.61;101233.13;5074693;27;46275;-69
2023/04/06 03:35:53;;;;;;;;;25.75;21.50;;;;;13.92;40.19;101248.91;5098696;27;45408;-68
2023/04/06 03:38:18;;;;;;;;;23.00;21.25;;;;;13.82;40.21;101225.25;5095413;27;45373;-69
2023/04/06 03:40:44;;;;;;;;;27.50;22.50;;;;;13.88;39.82;101227.84;5094305;27;45489;-67
2023/04/06 03:43:10;;;;;;;;;25.50;22.00;;;;;13.88;40.66;101219.94;5097995;27;46011;-67
2023/04/06 03:45:35;;;;;;;;;23.75;19.75;;;;;13.92;40.45;101229.59;5096332;27;45320;-66
2023/04/06 03:48:01;;;;;;;;;23.00;18.50;;;;;13.83;40.69;101212.06;5075881;27;45589;-67
2023/04/06 03:50:26;;;;;;;;;21.75;18.75;;;;;13.78;40.81;101219.97;5084005;27;45469;-67
2023/04/06 03:52:52;;;;;;;;;26.50;21.50;;;;;13.74;40.73;101223.53;5098574;27;45494;-68
2023/04/06 03:55:17;;;;;;;;;27.75;22.25;;;;;13.77;41.18;101222.63;5079979;27;45571;-69
2023/04/06 03:57:43;;;;;;;;;27.50;20.50;;;;;13.75;40.62;101225.25;5084145;27;45276;-68
2023/04/06 04:00:09;;;;;;;;;30.50;25.25;;;;;13.71;41.04;101218.25;5097045;27;45350;-68
2023/04/06 04:02:35;;;;;;;;;30.75;22.25;;;;;13.76;40.43;101218.22;5094273;27;46340;-68
2023/04/06 04:05:01;;;;;;;;;25.50;18.25;;;;;13.81;40.73;101228.75;5096031;27;45465;-69
2023/04/06 04:07:26;;;;;;;;;17.75;15.00;;;;;13.74;40.92;101223.53;5077283;27;45484;-68
2023/04/06 04:09:52;;;;;;;;;24.00;20.50;;;;;13.70;40.62;101220.91;5093974;27;45466;-68
2023/04/06 04:12:18;;;;;;;;;21.50;17.75;;;;;13.62;40.68;101234.09;5097621;27;45412;-67
2023/04/06 04:14:43;;;;;;;;;24.50;17.75;;;;;13.46;40.93;101227.13;5079514;27;45467;-67
2023/04/06 04:17:09;;;;;;;;;20.75;14.25;;;;;13.54;40.46;101230.59;5097800;27;45816;-68
2023/04/06 04:19:38;;;;;;;;;29.50;22.75;;;;;13.51;40.62;101205.16;5087671;27;45591;-68
2023/04/06 04:22:04;;;;;;;;;18.50;16.50;;;;;13.67;40.52;101220.94;5076148;27;45979;-66
2023/04/06 04:24:30;;;;;;;;;18.25;18.00;;;;;13.67;40.30;101224.44;5078438;27;45718;-67
2023/04/06 04:26:56;;;;;;;;;24.25;19.25;;;;;13.54;40.57;101215.66;5097442;27;45429;-67
2023/04/06 04:29:23;;;;;;;;;24.75;20.25;;;;;13.54;41.36;101225.31;5093334;27;45375;-70
2023/04/06 04:31:49;;;;;;;;;23.25;19.75;;;;;13.42;41.85;101220.97;5094538;27;46353;-67
2023/04/06 04:34:15;;;;;;;;;20.50;14.50;;;;;13.42;41.83;101226.22;5097814;27;45211;-69
2023/04/06 04:36:41;;;;;;;;;23.25;16.75;;;;;13.45;41.34;101217.44;5097799;27;45459;-69
2023/04/06 04:39:07;;;;;;;;;26.00;18.25;;;;;13.43;41.46;101219.19;5079435;27;45576;-68
2023/04/06 04:41:33;;;;;;;;;23.25;18.50;;;;;13.36;41.52;101207.84;5091945;27;46557;-69
2023/04/06 04:43:59;;;;;;;;;27.75;21.50;;;;;13.29;41.57;101217.50;5093471;27;45499;-68
2023/04/06 04:46:24;;;;;;;;;27.00;21.75;;;;;13.29;41.43;101216.63;5074792;27;46056;-70
2023/04/06 04:48:50;;;;;;;;;27.50;21.75;;;;;13.25;41.38;101212.19;5087834;27;45426;-68
2023/04/06 04:51:15;;;;;;;;;29.75;23.00;;;;;13.29;41.67;101220.13;5094524;27;45589;-68
2023/04/06 04:53:41;;;;;;;;;25.00;19.00;;;;;13.31;41.80;101225.34;5084725;27;45707;-71
2023/04/06 04:56:07;;;;;;;;;30.50;23.75;;;;;13.27;42.13;101226.22;5069751;27;45435;-67
2023/04/06 04:58:32;;;;;;;;;33.50;22.75;;;;;13.26;41.82;101224.47;5084001;27;45600;-67
2023/04/06 05:00:58;;;;;;;;;19.75;18.25;;;;;13.20;41.70;101222.72;5096719;27;45701;-69
2023/04/06 05:03:25;;;;;;;;;19.75;16.75;;;;;13.31;42.00;101246.41;5086553;27;45393;-69
2023/04/06 05:05:51;;;;;;;;;21.25;16.75;;;;;13.43;41.65;101248.16;5098209;27;45392;-69
2023/04/06 05:08:17;;;;;;;;;30.25;22.50;;;;;13.45;41.67;101241.13;5096501;27;45438;-68
2023/04/06 05:10:44;;;;;;;;;25.50;20.50;;;;;13.48;41.12;101239.38;5078436;27;48161;-67
2023/04/06 05:13:10;;;;;;;;;25.75;23.25;;;;;13.45;41.62;101228.84;5082726;27;45805;-68
2023/04/06 05:15:37;;;;;;;;;24.50;22.75;;;;;13.51;41.09;101239.38;5062426;28;45424;-71
2023/04/06 05:18:04;;;;;;;;;25.00;18.50;;;;;13.57;40.89;101256.88;5080353;27;45423;-67
2023/04/06 05:20:30;;;;;;;;;26.75;23.50;;;;;13.60;41.59;101258.66;5057867;28;46510;-69
2023/04/06 05:22:56;;;;;;;;;24.50;19.00;;;;;13.59;40.94;101252.50;5062925;27;45398;-70
2023/04/06 05:25:22;;;;;;;;;34.00;24.00;;;;;13.57;41.38;101257.78;5066700;27;45532;-71
2023/04/06 05:27:48;;;;;;;;;23.75;20.50;;;;;13.55;41.40;101251.66;5077152;27;45481;-68
2023/04/06 05:30:14;;;;;;;;;22.75;19.25;;;;;13.61;41.39;101252.50;5083738;27;45790;-68
2023/04/06 05:32:41;;;;;;;;;23.75;19.50;;;;;13.61;41.18;101255.16;5085268;27;45422;-70
2023/04/06 05:35:07;;;;;;;;;29.50;23.50;;;;;13.57;41.48;101243.72;5074522;27;45413;-66
2023/04/06 05:37:33;;;;;;;;;29.00;21.75;;;;;13.62;41.55;101264.78;5076757;27;45371;-67
2023/04/06 05:39:58;;;;;;;;;28.75;25.25;;;;;13.63;41.63;101263.91;5077749;27;46174;-70
2023/04/06 05:42:25;;;;;;;;;31.75;23.50;;;;;13.53;42.11;101255.16;5077770;27;45480;-70
2023/04/06 05:44:50;;;;;;;;;26.50;22.00;;;;;13.52;42.48;101262.16;5076872;27;45482;-69
2023/04/06 05:47:16;;;;;;;;;27.50;22.25;;;;;13.45;42.40;101259.53;5081142;27;46058;-68
2023/04/06 05:49:42;;;;;;;;;28.50;21.75;;;;;13.44;42.99;101256.03;5084564;27;46278;-67
2023/04/06 05:52:09;;;;;;;;;29.00;20.25;;;;;13.45;43.03;101252.53;5089327;27;45448;-69
2023/04/06 05:54:36;;;;;;;;;23.75;20.50;;;;;13.39;43.43;101238.53;5066107;27;45359;-70
2023/04/06 05:57:04;;;;;;;;;21.75;21.25;;;;;13.52;43.10;101256.03;5070449;27;45323;-70
2023/04/06 05:59:31;;;;;;;;;22.25;21.00;;;;;13.44;42.53;101252.53;5080531;27;47041;-69
2023/04/06 06:01:57;;;;;;;;;26.50;23.00;;;;;13.55;43.06;101262.19;5079819;27;45387;-71
2023/04/06 06:04:22;;;;;;;;;20.00;18.50;;;;;13.58;42.64;101267.44;5086163;27;45470;-71
2023/04/06 06:06:48;;;;;;;;;33.00;27.75;;;;;13.45;43.37;101254.28;5082034;27;45569;-68
2023/04/06 06:09:14;;;;;;;;;25.25;23.75;;;;;13.49;43.88;101262.19;5057585;27;47018;-70
2023/04/06 06:11:40;;;;;;;;;29.50;23.75;;;;;13.44;43.77;101255.19;5080497;27;45319;-71
2023/04/06 06:14:06;;;;;;;;;26.50;19.75;;;;;13.45;43.95;101268.31;5085951;27;45555;-73
2023/04/06 06:16:32;;;;;;;;;26.75;21.25;;;;;13.45;44.16;101273.56;5078256;27;45764;-68
2023/04/06 06:19:02;;;;;;;;;23.00;20.25;;;;;13.32;44.03;101251.69;5079143;27;45470;-68
2023/04/06 06:21:28;;;;;;;;;32.25;23.00;;;;;13.30;45.34;101255.19;5070202;27;45461;-73
2023/04/06 06:23:54;;;;;;;;;21.00;19.00;;;;;13.29;45.14;101270.09;5066653;28;45357;-71
2023/04/06 06:26:20;;;;;;;;;24.50;20.00;;;;;13.18;45.36;101245.53;5070642;27;46107;-70
2023/04/06 06:28:45;;;;;;;;;29.50;22.00;;;;;13.23;44.84;101259.53;5086036;27;45496;-70
2023/04/06 06:31:12;;;;;;;;;35.00;25.75;;;;;13.10;46.58;101266.56;5075885;27;45711;-68
2023/04/06 06:33:37;;;;;;;;;30.00;20.50;;;;;12.99;45.69;101263.06;5074779;27;45990;-71
2023/04/06 06:36:03;;;;;;;;;30.50;24.75;;;;;12.96;45.67;101260.44;5056848;27;46005;-68
2023/04/06 06:38:29;;;;;;;;;22.25;19.75;;;;;12.93;46.36;101268.28;5081359;27;45427;-68
2023/04/06 06:40:54;;;;;;;;;21.25;19.75;;;;;12.88;46.53;101247.28;5076696;27;45502;-71
2023/04/06 06:43:20;;;;;;;;;25.50;22.00;;;;;12.97;46.72;101259.53;5078301;27;45524;-70
2023/04/06 06:45:46;;;;;;;;;27.75;25.00;;;;;12.86;46.47;101258.66;5085527;27;45439;-68
2023/04/06 06:48:11;;;;;;;;;27.75;27.25;;;;;12.96;46.57;101260.44;5083933;27;45322;-68
2023/04/06 06:50:37;;;;;;;;;31.75;26.75;;;;;12.95;47.59;101261.28;5083889;27;45713;-68
2023/04/06 06:53:03;;;;;;;;;21.75;20.50;;;;;12.80;47.43;101240.25;5060489;27;45744;-69
2023/04/06 06:55:28;;;;;;;;;33.00;26.75;;;;;12.79;47.37;101249.91;5088576;27;45615;-68
2023/04/06 06:57:55;;;;;;;;;26.75;24.00;;;;;12.74;47.05;101246.38;5094880;27;45384;-69
2023/04/06 07:00:21;;;;;;;;;32.00;26.75;;;;;12.80;47.60;101254.28;5095126;27;45515;-71
2023/04/06 07:02:48;;;;;;;;;28.00;23.75;;;;;12.73;47.90;101258.63;5094536;27;45453;-70
2023/04/06 07:05:14;;;;;;;;;30.00;24.00;;;;;12.63;47.44;101248.13;5088331;27;46226;-73
2023/04/06 07:07:40;;;;;;;;;27.00;23.75;;;;;12.57;47.88;101243.72;5058895;28;47187;-67
2023/04/06 07:10:08;;;;;;;;;25.25;21.75;;;;;12.64;48.30;101256.00;5087820;27;45657;-68
2023/04/06 07:12:34;;;;;;;;;30.75;27.00;;;;;12.57;48.91;101248.97;5073772;27;45507;-69
2023/04/06 07:15:01;;;;;;;;;30.50;24.50;;;;;12.59;48.52;101255.13;5067718;27;45590;-69
2023/04/06 07:17:26;;;;;;;;;28.75;22.50;;;;;12.50;48.46;101265.59;5083530;27;46232;-70
2023/04/06 07:19:52;;;;;;;;;19.00;18.50;;;;;12.58;48.83;101256.00;5076337;27;45539;-70
2023/04/06 07:22:18;;;;;;;;;31.25;23.00;;;;;12.55;48.94;101260.34;5074294;27;45557;-71
2023/04/06 07:24:43;;;;;;;;;28.50;21.00;;;;;12.48;49.50;101262.97;5074934;27;45665;-70
2023/04/06 07:27:09;;;;;;;;;28.25;25.50;;;;;12.55;49.25;101258.59;5059392;27;47513;-71
2023/04/06 07:29:35;;;;;;;;;31.25;20.50;;;;;12.51;49.59;101265.63;5060008;28;45449;-71
2023/04/06 07:32:00;;;;;;;;;28.75;27.00;;;;;12.56;50.05;101251.63;5056149;27;45362;-72
2023/04/06 07:34:26;;;;;;;;;27.75;25.75;;;;;12.51;50.46;101259.50;5074978;27;45578;-72
2023/04/06 07:36:53;;;;;;;;;21.75;20.75;;;;;12.39;51.20;101255.06;5083412;27;46213;-70
2023/04/06 07:39:19;;;;;;;;;31.25;24.75;;;;;12.45;51.25;101254.22;5060190;28;45763;-73
2023/04/06 07:41:45;;;;;;;;;25.00;21.75;;;;;12.40;52.27;101266.47;5064017;28;45501;-68
2023/04/06 07:44:11;;;;;;;;;33.25;27.75;;;;;12.42;52.31;101264.72;5077788;27;45430;-72
2023/04/06 07:46:36;;;;;;;;;31.50;25.75;;;;;12.33;53.37;101260.31;5079572;27;45473;-70
2023/04/06 07:49:02;;;;;;;;;30.50;27.50;;;;;12.17;53.99;101254.13;5073042;27;45453;-67
2023/04/06 07:51:28;;;;;;;;;26.75;22.00;;;;;12.27;54.04;101257.66;5073952;27;45354;-74
2023/04/06 07:53:53;;;;;;;;;24.00;21.00;;;;;12.40;54.12;101261.19;5056460;27;45543;-71
2023/04/06 07:56:20;;;;;;;;;26.75;24.00;;;;;12.58;53.84;101261.25;5080978;27;45457;-72
2023/04/06 07:58:46;;;;;;;;;33.50;28.25;;;;;12.60;54.56;101246.38;5076471;27;45406;-68
2023/04/06 08:01:12;;;;;;;;;31.25;26.75;;;;;12.77;55.13;101263.94;5093509;27;45437;-70
2023/04/06 08:03:37;;;;;;;;;28.00;26.25;;;;;12.82;54.19;101254.28;5094043;27;45760;-70
2023/04/06 08:06:03;;;;;;;;;22.75;22.75;;;;;12.89;54.80;101249.03;5094090;27;45425;-69
2023/04/06 08:08:29;;;;;;;;;26.50;22.75;;;;;12.96;54.96;101251.66;5093715;27;45419;-70
2023/04/06 08:10:55;;;;;;;;;29.25;24.75;;;;;13.07;54.87;101258.66;5094462;27;45835;-71
2023/04/06 08:13:20;;;;;;;;;30.00;23.50;;;;;13.03;54.83;101241.16;5075269;27;45995;-69
2023/04/06 08:15:46;;;;;;;;;20.25;18.00;;;;;13.20;54.91;101263.94;5081057;27;45578;-69
2023/04/06 08:18:12;;;;;;;;;26.00;20.75;;;;;13.28;54.30;101249.06;5054571;27;45899;-72
2023/04/06 08:20:39;;;;;;;;;30.50;26.75;;;;;13.37;54.56;101243.78;5073387;27;45528;-68
2023/04/06 08:23:06;;;;;;;;;31.50;23.50;;;;;13.48;54.35;101249.91;5063811;28;45529;-71
2023/04/06 08:25:33;;;;;;;;;33.25;26.50;;;;;13.39;54.25;101252.56;5086502;27;46461;-70
2023/04/06 08:27:59;;;;;;;;;26.50;23.25;;;;;13.30;55.38;101250.78;5075655;27;45454;-70
2023/04/06 08:30:24;;;;;;;;;31.25;26.25;;;;;13.22;55.49;101254.31;5058707;27;45370;-69
2023/04/06 08:32:50;;;;;;;;;33.75;29.25;;;;;13.34;55.03;101249.94;5076984;27;45539;-69
2023/04/06 08:35:16;;;;;;;;;29.75;24.50;;;;;13.61;54.85;101255.16;5077461;27;45497;-72
2023/04/06 08:37:42;;;;;;;;;35.75;29.75;;;;;13.60;54.31;101253.41;5086014;27;45518;-69
2023/04/06 08:40:08;;;;;;;;;38.25;26.25;;;;;13.56;54.35;101266.56;5080179;27;45476;-69
2023/04/06 08:42:43;;;;;;;;;33.25;30.00;;;;;13.63;54.78;101264.78;5076826;27;45307;-72
2023/04/06 08:45:09;;;;;;;;;31.25;26.25;;;;;13.61;54.75;101256.00;5057879;28;46810;-74
2023/04/06 08:47:36;;;;;;;;;33.25;29.00;;;;;13.63;54.63;101262.16;5063121;28;45461;-69
2023/04/06 08:50:06;;;;;;;;;31.25;29.75;;;;;13.68;54.60;101256.88;5082917;27;45458;-68
2023/04/06 08:52:33;;;;;;;;;27.00;25.50;;;;;13.72;54.54;101270.03;5080642;27;45386;-71
2023/04/06 08:54:59;;;;;;;;;28.50;26.75;;;;;13.75;54.54;101271.78;5074946;28;48112;-70
2023/04/06 08:57:26;;;;;;;;;37.75;30.50;;;;;13.89;54.10;101292.81;5088482;27;45411;-70
2023/04/06 08:59:53;;;;;;;;;26.50;24.00;;;;;13.83;54.13;101285.78;5096793;27;45385;-70
2023/04/06 09:02:20;;;;;;;;;30.75;21.75;;;;;13.63;54.48;101261.28;5097208;27;45516;-70
2023/04/06 09:04:48;;;;;;;;;25.50;22.00;;;;;13.71;54.30;101285.81;5078030;27;45954;-72
2023/04/06 09:07:15;;;;;;;;;29.50;24.25;;;;;13.70;54.00;101292.84;5078758;27;45413;-70
2023/04/06 09:09:47;;;;;;;;;21.50;21.25;;;;;13.58;55.00;101275.31;5099604;27;45544;-68
2023/04/06 09:12:31;;;;;;;;;36.00;28.50;;;;;13.57;54.54;101267.41;5100706;27;45439;-69
2023/04/06 09:14:58;;;;;;;;;31.00;27.50;;;;;13.58;55.04;101263.94;5077909;27;47881;-72
2023/04/06 09:17:26;;;;;;;;;34.50;27.50;;;;;13.62;55.27;101265.69;5098467;27;45468;-72
2023/04/06 09:19:52;;;;;;;;;33.00;29.00;;;;;13.71;55.04;101280.56;5082195;27;45483;-71
2023/04/06 09:22:18;;;;;;;;;32.50;26.50;;;;;13.66;55.11;101288.47;5101190;27;45401;-68
2023/04/06 09:24:49;;;;;;;;;28.25;23.25;;;;;13.68;55.44;101299.00;5099412;27;45976;-69
2023/04/06 09:27:15;;;;;;;;;27.25;25.75;;;;;13.66;55.47;101284.97;5096499;27;45434;-69
2023/04/06 09:29:42;;;;;;;;;28.00;24.75;;;;;13.66;55.88;101293.72;5088395;27;45427;-72
2023/04/06 09:32:16;;;;;;;;;24.50;23.75;;;;;13.58;56.08;101285.84;5091667;27;45421;-71
2023/04/06 09:34:42;;;;;;;;;31.00;26.50;;;;;13.60;56.76;101292.88;5063865;27;45540;-69
2023/04/06 09:37:14;;;;;;;;;22.75;19.50;;;;;13.50;56.46;101285.00;5063978;27;45631;-70
2023/04/06 09:39:40;;;;;;;;;20.50;20.00;;;;;13.31;56.88;101264.81;5057631;28;45449;-70
2023/04/06 09:42:06;;;;;;;;;28.75;21.25;;;;;13.32;57.38;101280.63;5075164;27;45620;-68
2023/04/06 09:44:31;;;;;;;;;29.25;24.25;;;;;13.36;57.31;101286.78;5058213;28;47520;-68
2023/04/06 09:46:57;;;;;;;;;25.00;20.75;;;;;13.14;57.46;101263.06;5074570;27;45377;-71
2023/04/06 09:49:24;;;;;;;;;27.25;23.00;;;;;13.42;57.58;101296.41;5057315;28;45307;-71
2023/04/06 09:51:56;;;;;;;;;27.25;23.50;;;;;13.36;57.87;101268.34;5077242;27;45743;-68
2023/04/06 09:54:23;;;;;;;;;25.00;21.75;;;;;13.40;57.82;101262.19;5059782;27;47185;-71
2023/04/06 09:56:51;;;;;;;;;29.00;22.00;;;;;13.55;57.62;101287.63;5082909;27;45547;-68
2023/04/06 09:59:26;;;;;;;;;20.25;19.00;;;;;13.54;58.21;101286.72;5088526;27;45551;-70
2023/04/06 10:01:58;;;;;;;;;25.50;20.25;;;;;13.46;58.08;101280.59;5079916;27;45652;-71
2023/04/06 10:04:32;;;;;;;;;25.50;17.75;;;;;13.47;58.21;101295.50;5075043;27;46088;-71
2023/04/06 10:06:59;;;;;;;;;21.75;16.50;;;;;13.41;58.14;101298.16;5076367;27;45340;-70
2023/04/06 10:09:35;;;;;;;;;24.50;16.25;;;;;13.35;58.54;101288.50;5059420;28;45869;-74
2023/04/06 10:12:05;;;;;;;;;21.00;16.75;;;;;13.41;58.41;101300.78;5075826;27;45598;-72
2023/04/06 10:14:37;;;;;;;;;19.75;15.75;;;;;13.34;57.93;101293.78;5074920;27;45789;-71
2023/04/06 10:17:04;;;;;;;;;13.75;11.50;;;;;13.31;58.49;101289.41;5076347;27;45891;-73
2023/04/06 10:19:39;;;;;;;;;20.75;17.75;;;;;13.33;58.57;101299.91;5079309;27;45466;-70
2023/04/06 10:22:08;;;;;;;;;13.25;12.25;;;;;13.25;58.98;101273.56;5079966;27;45617;-68
2023/04/06 10:24:35;;;;;;;;;16.00;14.75;;;;;13.36;58.34;101286.78;5057714;28;48050;-69
2023/04/06 10:27:06;;;;;;;;;16.50;14.25;;;;;13.46;58.69;101285.00;5056446;28;45626;-69
2023/04/06 10:29:44;;;;;;;;;16.75;15.25;;;;;13.54;58.44;101302.50;5079322;27;45199;-69
2023/04/06 10:32:09;;;;;;;;;17.50;13.75;;;;;13.56;59.13;101303.41;5060967;28;45493;-71
2023/04/06 10:34:35;;;;;;;;;17.00;13.25;;;;;13.64;58.78;101306.00;5081305;27;45936;-71
2023/04/06 10:37:12;;;;;;;;;11.75;11.50;;;;;13.68;58.24;101289.34;5079224;27;45715;-74
2023/04/06 10:39:58;;;;;;;;;12.75;10.75;;;;;13.87;58.07;101291.94;5078768;27;45454;-71
2023/04/06 10:42:39;;;;;;;;;12.25;12.00;;;;;13.94;57.10;101304.19;5077901;27;45788;-73
2023/04/06 10:45:18;;;;;;;;;14.50;12.00;;;;;13.95;57.46;101312.13;5074715;27;45734;-72
2023/04/06 10:47:44;;;;;;;;;16.25;13.25;;;;;13.97;58.00;101310.31;5078471;27;45498;-69
2023/04/06 10:50:16;;;;;;;;;15.25;12.00;;;;;13.99;58.00;101289.25;5079083;27;45432;-73
2023/04/06 10:52:44;;;;;;;;;15.25;9.25;;;;;14.09;57.41;101304.13;5078895;27;45485;-73
2023/04/06 10:55:10;;;;;;;;;12.50;12.50;;;;;14.17;57.56;101305.00;5060588;28;47739;-69
2023/04/06 10:57:36;;;;;;;;;15.00;10.75;;;;;14.16;57.53;101302.38;5088703;27;45661;-70
2023/04/06 11:00:05;;;;;;;;;11.50;9.25;;;;;14.28;57.25;101315.50;5076648;27;45485;-69
2023/04/06 11:02:31;;;;;;;;;16.25;14.00;;;;;14.54;56.57;101315.41;5095345;27;45716;-69
2023/04/06 11:04:58;;;;;;;;;14.00;11.50;;;;;15.20;55.63;101299.16;5095793;27;45774;-70
2023/04/06 11:07:25;;;;;;;;;16.00;12.00;;;;;15.87;53.96;101291.50;5098149;27;45469;-73